Aplicació Alertes

Dades de l'estació automàtica Cabrils

?
?
Resum diari 22:30 TU
Dades diàries de l'estació meteorològica
Temperatura mitjana 7.4 °C
Temperatura màxima 15.2 °C 13:28 TU
Temperatura mínima 1.3 °C 0:00 TU
Humitat relativa mitjana 43%
Precipitació acumulada 0.0 mm
Ratxa màxima del vent (10 m) 27.0 km/h - 339º 10:13 TU
Pressió atmosfèrica mitjana 1025.4 hPa
Irradiació solar global 8.4 MJ/m2

El tram horari està expressat en Temps Universal (TU). Cal sumar una hora en horari d'hivern i dues en horari d'estiu per passar a l'hora oficial.

Cabrils

Metadades estació meteorol´gica
Municipi Cabrils
Comarca Maresme
Altitud 81 m
Data alta 27.11.1995
Estat actual Operativa
Dades de període
Període
TU
TM
°C
TX
°C
TN
°C
HRM
%
PPT
mm
VVM (10 m)
km/h
DVM (10 m)
graus
VVX (10 m)
km/h
PM
hPa
RS
W/m2
00:00 - 00:30 2.1 3.5 1.3 59 0.0 6.5 345 14.4 1022.0 0
00:30 - 01:00 3.8 4.3 3.3 49 0.0 7.6 318 11.9 1022.2 0
01:00 - 01:30 4.9 6.0 3.8 44 0.0 11.2 321 19.8 1022.5 0
01:30 - 02:00 6.1 6.5 5.5 39 0.0 12.2 315 20.5 1022.8 0
02:00 - 02:30 5.2 5.4 5.0 42 0.0 10.4 317 14.4 1022.8 0
02:30 - 03:00 5.0 5.3 5.0 43 0.0 11.5 317 15.1 1022.7 0
03:00 - 03:30 6.5 7.7 5.4 37 0.0 6.5 343 14.4 1022.7 0
03:30 - 04:00 4.5 5.3 3.4 46 0.0 3.6 344 9.0 1022.9 0
04:00 - 04:30 3.6 4.3 3.1 49 0.0 7.2 326 13.7 1023.5 0
04:30 - 05:00 3.1 3.2 2.9 50 0.0 11.2 318 16.2 1023.9 0
05:00 - 05:30 2.6 3.1 2.2 52 0.0 9.7 319 14.4 1024.1 0
05:30 - 06:00 2.4 2.6 2.2 54 0.0 9.4 325 15.5 1024.3 0
06:00 - 06:30 2.7 2.9 2.4 52 0.0 10.1 324 15.5 1024.7 0
06:30 - 07:00 2.7 2.9 2.5 51 0.0 8.6 328 13.3 1025.0 0
07:00 - 07:30 2.1 2.5 2.0 55 0.0 8.6 323 12.2 1025.2 5
07:30 - 08:00 3.2 5.1 2.2 52 0.0 5.8 308 13.0 1025.2 52
08:00 - 08:30 7.4 8.5 5.5 35 0.0 6.8 326 19.4 1025.4 129
08:30 - 09:00 8.8 9.2 8.5 31 0.0 11.9 324 23.4 1025.7 204
09:00 - 09:30 9.3 9.9 9.0 30 0.0 14.4 317 25.2 1026.1 273
09:30 - 10:00 10.3 10.7 9.9 28 0.0 14.4 319 25.9 1026.3 332
10:00 - 10:30 10.9 11.5 10.7 28 0.0 15.8 321 27.0 1026.3 381
10:30 - 11:00 11.3 11.8 10.8 29 0.0 13.0 309 27.0 1026.0 413
11:00 - 11:30 11.2 11.5 10.8 31 0.0 14.4 314 27.0 1025.9 428
11:30 - 12:00 12.3 12.8 11.8 30 0.0 10.1 310 21.2 1025.7 434
12:00 - 12:30 13.1 13.6 12.7 28 0.0 10.4 314 22.3 1025.4 429
12:30 - 13:00 13.7 14.0 13.4 28 0.0 10.1 307 19.1 1025.3 401
13:00 - 13:30 14.1 15.2 13.5 27 0.0 5.4 277 14.8 1025.0 361
13:30 - 14:00 14.4 15.0 14.0 27 0.0 4.3 249 12.6 1024.7 311
14:00 - 14:30 13.9 14.5 13.1 31 0.0 4.7 196 14.4 1024.8 252
14:30 - 15:00 14.1 14.5 13.7 28 0.0 7.2 302 19.8 1024.9 186
15:00 - 15:30 13.7 14.1 13.4 26 0.0 9.4 318 19.4 1025.2 116
15:30 - 16:00 12.2 13.5 10.7 30 0.0 5.0 315 10.8 1025.6 35
16:00 - 16:30 9.2 10.6 8.4 41 0.0 6.1 310 9.7 1025.8 4
16:30 - 17:00 7.3 8.3 5.9 48 0.0 3.6 312 8.6 1026.1 0
17:00 - 17:30 5.6 6.0 5.4 55 0.0 5.0 344 9.7 1026.4 0
17:30 - 18:00 6.1 6.3 5.9 50 0.0 9.0 323 13.0 1026.6 0
18:00 - 18:30 5.9 6.0 5.6 50 0.0 8.3 325 12.2 1026.9 0
18:30 - 19:00 5.7 6.0 5.6 53 0.0 8.3 331 11.5 1027.3 0
19:00 - 19:30 5.5 5.6 5.4 56 0.0 10.1 324 14.4 1027.6 0
19:30 - 20:00 5.3 5.6 5.0 58 0.0 9.0 319 13.3 1027.8 0
20:00 - 20:30 5.1 5.5 4.9 60 0.0 7.6 334 12.2 1027.9 0
20:30 - 21:00 6.0 6.4 5.2 57 0.0 10.4 320 15.1 1028.0 0
21:00 - 21:30 6.6 6.8 6.3 54 0.0 10.1 321 13.3 1027.9 0
21:30 - 22:00 6.3 6.4 6.2 54 0.0 10.4 322 14.0 1028.0 0
22:00 - 22:30 6.5 7.0 6.3 53 0.0 10.4 324 14.8 1028.2 0
22:30 - 23:00 7.2 7.4 7.0 48 0.0 10.1 324 15.8 1028.4 0

Les dades en taronja només han passat un control de qualitat automàtic. Resta pendent la seva validació definitiva.